sensor_id;sensor_type;location;lat;lon;timestamp;P1;durP1;ratioP1;P2;durP2;ratioP2
4051;SDS011;2040;50.924;11.604;2023-03-16T00:02:01;4.87;;;2.10;;
4051;SDS011;2040;50.924;11.604;2023-03-16T00:04:28;4.83;;;1.30;;
4051;SDS011;2040;50.924;11.604;2023-03-16T00:06:54;2.00;;;1.33;;
4051;SDS011;2040;50.924;11.604;2023-03-16T00:09:20;3.47;;;1.57;;
4051;SDS011;2040;50.924;11.604;2023-03-16T00:11:46;1.60;;;1.50;;
4051;SDS011;2040;50.924;11.604;2023-03-16T00:14:11;2.03;;;1.37;;
4051;SDS011;2040;50.924;11.604;2023-03-16T00:16:37;5.10;;;1.97;;
4051;SDS011;2040;50.924;11.604;2023-03-16T00:19:03;5.53;;;1.80;;
4051;SDS011;2040;50.924;11.604;2023-03-16T00:21:29;4.43;;;1.63;;
4051;SDS011;2040;50.924;11.604;2023-03-16T00:23:56;4.97;;;2.27;;
4051;SDS011;2040;50.924;11.604;2023-03-16T00:26:22;9.73;;;1.70;;
4051;SDS011;2040;50.924;11.604;2023-03-16T00:28:47;2.63;;;1.80;;
4051;SDS011;2040;50.924;11.604;2023-03-16T00:31:13;3.60;;;2.10;;
4051;SDS011;2040;50.924;11.604;2023-03-16T00:33:39;2.67;;;2.23;;
4051;SDS011;2040;50.924;11.604;2023-03-16T00:36:06;3.23;;;1.93;;
4051;SDS011;2040;50.924;11.604;2023-03-16T00:38:34;2.57;;;1.97;;
4051;SDS011;2040;50.924;11.604;2023-03-16T00:41:02;1.70;;;1.60;;
4051;SDS011;2040;50.924;11.604;2023-03-16T00:43:30;2.10;;;1.53;;
4051;SDS011;2040;50.924;11.604;2023-03-16T00:45:56;8.93;;;2.00;;
4051;SDS011;2040;50.924;11.604;2023-03-16T00:48:33;3.37;;;1.83;;
4051;SDS011;2040;50.924;11.604;2023-03-16T00:51:01;3.70;;;2.40;;
4051;SDS011;2040;50.924;11.604;2023-03-16T00:53:30;1.57;;;1.10;;
4051;SDS011;2040;50.924;11.604;2023-03-16T00:56:01;2.17;;;2.00;;
4051;SDS011;2040;50.924;11.604;2023-03-16T00:58:34;6.63;;;1.50;;
4051;SDS011;2040;50.924;11.604;2023-03-16T01:01:05;2.50;;;1.87;;
4051;SDS011;2040;50.924;11.604;2023-03-16T01:03:33;4.40;;;2.27;;
4051;SDS011;2040;50.924;11.604;2023-03-16T01:06:06;2.73;;;1.93;;
4051;SDS011;2040;50.924;11.604;2023-03-16T01:08:34;2.73;;;1.60;;
4051;SDS011;2040;50.924;11.604;2023-03-16T01:11:03;4.20;;;2.17;;
4051;SDS011;2040;50.924;11.604;2023-03-16T01:13:48;4.10;;;1.67;;
4051;SDS011;2040;50.924;11.604;2023-03-16T01:16:15;3.50;;;2.10;;
4051;SDS011;2040;50.924;11.604;2023-03-16T01:18:42;5.37;;;1.90;;
4051;SDS011;2040;50.924;11.604;2023-03-16T01:21:09;4.40;;;2.20;;
4051;SDS011;2040;50.924;11.604;2023-03-16T01:23:37;1.67;;;1.53;;
4051;SDS011;2040;50.924;11.604;2023-03-16T01:26:03;5.70;;;2.03;;
4051;SDS011;2040;50.924;11.604;2023-03-16T01:28:30;6.53;;;1.90;;
4051;SDS011;2040;50.924;11.604;2023-03-16T01:31:07;3.90;;;1.63;;
4051;SDS011;2040;50.924;11.604;2023-03-16T01:33:34;2.60;;;2.20;;
4051;SDS011;2040;50.924;11.604;2023-03-16T01:36:02;2.20;;;2.00;;
4051;SDS011;2040;50.924;11.604;2023-03-16T01:38:33;5.43;;;2.07;;
4051;SDS011;2040;50.924;11.604;2023-03-16T01:40:59;4.60;;;2.23;;
4051;SDS011;2040;50.924;11.604;2023-03-16T01:43:26;3.27;;;1.70;;
4051;SDS011;2040;50.924;11.604;2023-03-16T01:48:31;4.83;;;2.03;;
4051;SDS011;2040;50.924;11.604;2023-03-16T01:51:04;1.27;;;1.10;;
4051;SDS011;2040;50.924;11.604;2023-03-16T01:53:36;1.90;;;1.70;;
4051;SDS011;2040;50.924;11.604;2023-03-16T01:56:04;2.03;;;1.33;;
4051;SDS011;2040;50.924;11.604;2023-03-16T01:58:33;2.60;;;1.80;;
4051;SDS011;2040;50.924;11.604;2023-03-16T02:01:01;8.73;;;1.93;;
4051;SDS011;2040;50.924;11.604;2023-03-16T02:03:28;3.20;;;1.50;;
4051;SDS011;2040;50.924;11.604;2023-03-16T02:05:59;1.70;;;1.17;;
4051;SDS011;2040;50.924;11.604;2023-03-16T02:08:29;2.80;;;1.20;;
4051;SDS011;2040;50.924;11.604;2023-03-16T02:10:57;2.43;;;1.40;;
4051;SDS011;2040;50.924;11.604;2023-03-16T02:13:23;3.77;;;1.90;;
4051;SDS011;2040;50.924;11.604;2023-03-16T02:15:50;1.70;;;1.40;;
4051;SDS011;2040;50.924;11.604;2023-03-16T02:18:17;3.53;;;1.73;;
4051;SDS011;2040;50.924;11.604;2023-03-16T02:20:58;5.97;;;2.17;;
4051;SDS011;2040;50.924;11.604;2023-03-16T02:23:49;4.20;;;1.50;;
4051;SDS011;2040;50.924;11.604;2023-03-16T02:26:19;1.70;;;1.60;;
4051;SDS011;2040;50.924;11.604;2023-03-16T02:32:03;3.77;;;2.57;;
4051;SDS011;2040;50.924;11.604;2023-03-16T02:34:29;4.00;;;1.90;;
4051;SDS011;2040;50.924;11.604;2023-03-16T02:36:55;2.93;;;1.97;;
4051;SDS011;2040;50.924;11.604;2023-03-16T02:39:22;4.63;;;1.87;;
4051;SDS011;2040;50.924;11.604;2023-03-16T02:41:48;3.43;;;2.03;;
4051;SDS011;2040;50.924;11.604;2023-03-16T02:46:41;4.27;;;1.83;;
4051;SDS011;2040;50.924;11.604;2023-03-16T02:49:24;2.83;;;1.37;;
4051;SDS011;2040;50.924;11.604;2023-03-16T02:51:53;2.17;;;1.50;;
4051;SDS011;2040;50.924;11.604;2023-03-16T02:54:21;1.87;;;1.23;;
4051;SDS011;2040;50.924;11.604;2023-03-16T02:56:47;1.70;;;1.60;;
4051;SDS011;2040;50.924;11.604;2023-03-16T02:59:13;6.50;;;2.67;;
4051;SDS011;2040;50.924;11.604;2023-03-16T03:01:38;4.17;;;1.93;;
4051;SDS011;2040;50.924;11.604;2023-03-16T03:04:04;1.10;;;0.90;;
4051;SDS011;2040;50.924;11.604;2023-03-16T03:06:30;3.60;;;1.47;;
4051;SDS011;2040;50.924;11.604;2023-03-16T03:08:56;1.93;;;1.73;;
4051;SDS011;2040;50.924;11.604;2023-03-16T03:11:22;3.33;;;2.10;;
4051;SDS011;2040;50.924;11.604;2023-03-16T03:13:48;4.33;;;2.03;;
4051;SDS011;2040;50.924;11.604;2023-03-16T03:16:13;3.93;;;2.37;;
4051;SDS011;2040;50.924;11.604;2023-03-16T03:18:39;6.70;;;1.93;;
4051;SDS011;2040;50.924;11.604;2023-03-16T03:21:05;4.43;;;1.93;;
4051;SDS011;2040;50.924;11.604;2023-03-16T03:23:31;5.13;;;1.90;;
4051;SDS011;2040;50.924;11.604;2023-03-16T03:25:59;2.93;;;2.43;;
4051;SDS011;2040;50.924;11.604;2023-03-16T03:28:26;7.20;;;1.97;;
4051;SDS011;2040;50.924;11.604;2023-03-16T03:30:52;4.80;;;2.23;;
4051;SDS011;2040;50.924;11.604;2023-03-16T03:33:18;2.10;;;1.40;;
4051;SDS011;2040;50.924;11.604;2023-03-16T03:35:43;4.87;;;2.13;;
4051;SDS011;2040;50.924;11.604;2023-03-16T03:38:09;2.37;;;1.87;;
4051;SDS011;2040;50.924;11.604;2023-03-16T03:40:35;2.13;;;1.37;;
4051;SDS011;2040;50.924;11.604;2023-03-16T03:43:01;2.50;;;1.57;;
4051;SDS011;2040;50.924;11.604;2023-03-16T03:45:27;1.87;;;1.43;;
4051;SDS011;2040;50.924;11.604;2023-03-16T03:47:53;1.80;;;1.60;;
4051;SDS011;2040;50.924;11.604;2023-03-16T03:50:20;13.23;;;2.10;;
4051;SDS011;2040;50.924;11.604;2023-03-16T03:52:45;5.70;;;2.97;;
4051;SDS011;2040;50.924;11.604;2023-03-16T03:55:11;3.20;;;2.80;;
4051;SDS011;2040;50.924;11.604;2023-03-16T03:57:37;2.27;;;1.70;;
4051;SDS011;2040;50.924;11.604;2023-03-16T04:00:06;2.20;;;1.90;;
4051;SDS011;2040;50.924;11.604;2023-03-16T04:02:36;7.27;;;2.27;;
4051;SDS011;2040;50.924;11.604;2023-03-16T04:05:02;3.17;;;1.53;;
4051;SDS011;2040;50.924;11.604;2023-03-16T04:07:29;3.80;;;1.80;;
4051;SDS011;2040;50.924;11.604;2023-03-16T04:09:54;6.83;;;2.60;;
4051;SDS011;2040;50.924;11.604;2023-03-16T04:12:21;2.07;;;1.50;;
4051;SDS011;2040;50.924;11.604;2023-03-16T04:14:47;7.30;;;2.63;;
4051;SDS011;2040;50.924;11.604;2023-03-16T04:17:12;3.37;;;1.90;;
4051;SDS011;2040;50.924;11.604;2023-03-16T04:19:38;2.97;;;1.43;;
4051;SDS011;2040;50.924;11.604;2023-03-16T04:22:04;2.13;;;1.47;;
4051;SDS011;2040;50.924;11.604;2023-03-16T04:24:31;3.40;;;2.70;;
4051;SDS011;2040;50.924;11.604;2023-03-16T04:26:58;4.23;;;2.17;;
4051;SDS011;2040;50.924;11.604;2023-03-16T04:29:25;3.67;;;2.37;;
4051;SDS011;2040;50.924;11.604;2023-03-16T04:31:52;1.70;;;1.53;;
4051;SDS011;2040;50.924;11.604;2023-03-16T04:34:18;2.90;;;1.80;;
4051;SDS011;2040;50.924;11.604;2023-03-16T04:36:44;2.30;;;1.70;;
4051;SDS011;2040;50.924;11.604;2023-03-16T04:39:09;1.20;;;1.10;;
4051;SDS011;2040;50.924;11.604;2023-03-16T04:41:35;2.20;;;1.53;;
4051;SDS011;2040;50.924;11.604;2023-03-16T04:44:01;2.80;;;1.77;;
4051;SDS011;2040;50.924;11.604;2023-03-16T04:46:27;2.77;;;1.37;;
4051;SDS011;2040;50.924;11.604;2023-03-16T04:48:53;10.57;;;1.83;;
4051;SDS011;2040;50.924;11.604;2023-03-16T04:51:22;2.67;;;1.67;;
4051;SDS011;2040;50.924;11.604;2023-03-16T04:53:48;2.43;;;1.60;;
4051;SDS011;2040;50.924;11.604;2023-03-16T04:56:13;8.20;;;2.30;;
4051;SDS011;2040;50.924;11.604;2023-03-16T04:58:47;2.83;;;1.50;;
4051;SDS011;2040;50.924;11.604;2023-03-16T05:01:13;3.13;;;1.77;;
4051;SDS011;2040;50.924;11.604;2023-03-16T05:03:39;2.90;;;1.87;;
4051;SDS011;2040;50.924;11.604;2023-03-16T05:06:05;5.30;;;1.97;;
4051;SDS011;2040;50.924;11.604;2023-03-16T05:08:31;2.13;;;1.93;;
4051;SDS011;2040;50.924;11.604;2023-03-16T05:10:57;4.90;;;2.00;;
4051;SDS011;2040;50.924;11.604;2023-03-16T05:13:23;4.30;;;1.73;;
4051;SDS011;2040;50.924;11.604;2023-03-16T05:15:48;2.63;;;2.10;;
4051;SDS011;2040;50.924;11.604;2023-03-16T05:18:14;3.63;;;1.90;;
4051;SDS011;2040;50.924;11.604;2023-03-16T05:20:40;3.50;;;1.77;;
4051;SDS011;2040;50.924;11.604;2023-03-16T05:23:06;6.40;;;2.40;;
4051;SDS011;2040;50.924;11.604;2023-03-16T05:25:32;4.70;;;2.30;;
4051;SDS011;2040;50.924;11.604;2023-03-16T05:27:58;5.43;;;1.97;;
4051;SDS011;2040;50.924;11.604;2023-03-16T05:30:23;4.60;;;1.67;;
4051;SDS011;2040;50.924;11.604;2023-03-16T05:32:50;2.00;;;1.60;;
4051;SDS011;2040;50.924;11.604;2023-03-16T05:35:15;2.23;;;1.70;;
4051;SDS011;2040;50.924;11.604;2023-03-16T05:37:41;2.33;;;1.80;;
4051;SDS011;2040;50.924;11.604;2023-03-16T05:40:10;3.57;;;1.73;;
4051;SDS011;2040;50.924;11.604;2023-03-16T05:42:47;2.80;;;1.70;;
4051;SDS011;2040;50.924;11.604;2023-03-16T05:45:14;1.77;;;1.60;;
4051;SDS011;2040;50.924;11.604;2023-03-16T05:47:41;5.70;;;1.47;;
4051;SDS011;2040;50.924;11.604;2023-03-16T05:50:07;4.90;;;1.50;;
4051;SDS011;2040;50.924;11.604;2023-03-16T05:52:35;3.60;;;2.10;;
4051;SDS011;2040;50.924;11.604;2023-03-16T05:55:01;3.57;;;2.67;;
4051;SDS011;2040;50.924;11.604;2023-03-16T05:57:27;5.57;;;2.20;;
4051;SDS011;2040;50.924;11.604;2023-03-16T05:59:53;5.13;;;1.90;;
4051;SDS011;2040;50.924;11.604;2023-03-16T06:02:18;3.53;;;2.33;;
4051;SDS011;2040;50.924;11.604;2023-03-16T06:04:44;3.63;;;1.80;;
4051;SDS011;2040;50.924;11.604;2023-03-16T06:07:09;2.50;;;2.30;;
4051;SDS011;2040;50.924;11.604;2023-03-16T06:09:35;6.90;;;1.90;;
4051;SDS011;2040;50.924;11.604;2023-03-16T06:12:01;2.63;;;1.63;;
4051;SDS011;2040;50.924;11.604;2023-03-16T06:14:28;5.60;;;1.87;;
4051;SDS011;2040;50.924;11.604;2023-03-16T06:16:54;5.87;;;2.13;;
4051;SDS011;2040;50.924;11.604;2023-03-16T06:19:20;4.93;;;1.30;;
4051;SDS011;2040;50.924;11.604;2023-03-16T06:21:46;1.93;;;1.10;;
4051;SDS011;2040;50.924;11.604;2023-03-16T06:24:11;2.67;;;1.70;;
4051;SDS011;2040;50.924;11.604;2023-03-16T06:26:37;3.00;;;1.67;;
4051;SDS011;2040;50.924;11.604;2023-03-16T06:29:03;1.47;;;1.37;;
4051;SDS011;2040;50.924;11.604;2023-03-16T06:31:29;5.70;;;2.10;;
4051;SDS011;2040;50.924;11.604;2023-03-16T06:33:55;3.00;;;1.70;;
4051;SDS011;2040;50.924;11.604;2023-03-16T06:36:21;3.57;;;2.13;;
4051;SDS011;2040;50.924;11.604;2023-03-16T06:38:46;7.53;;;2.07;;
4051;SDS011;2040;50.924;11.604;2023-03-16T06:41:12;3.60;;;2.47;;
4051;SDS011;2040;50.924;11.604;2023-03-16T06:43:38;3.00;;;2.47;;
4051;SDS011;2040;50.924;11.604;2023-03-16T06:46:04;3.77;;;3.07;;
4051;SDS011;2040;50.924;11.604;2023-03-16T06:48:29;4.90;;;2.70;;
4051;SDS011;2040;50.924;11.604;2023-03-16T06:50:55;7.50;;;2.50;;
4051;SDS011;2040;50.924;11.604;2023-03-16T06:53:21;3.20;;;2.00;;
4051;SDS011;2040;50.924;11.604;2023-03-16T06:55:47;3.90;;;2.20;;
4051;SDS011;2040;50.924;11.604;2023-03-16T06:58:12;2.20;;;1.87;;
4051;SDS011;2040;50.924;11.604;2023-03-16T07:00:38;9.33;;;1.90;;
4051;SDS011;2040;50.924;11.604;2023-03-16T07:03:05;3.43;;;2.20;;
4051;SDS011;2040;50.924;11.604;2023-03-16T07:05:30;4.50;;;2.50;;
4051;SDS011;2040;50.924;11.604;2023-03-16T07:07:57;4.73;;;2.93;;
4051;SDS011;2040;50.924;11.604;2023-03-16T07:10:22;4.90;;;3.40;;
4051;SDS011;2040;50.924;11.604;2023-03-16T07:12:49;4.87;;;3.40;;
4051;SDS011;2040;50.924;11.604;2023-03-16T07:15:14;11.50;;;3.13;;
4051;SDS011;2040;50.924;11.604;2023-03-16T07:17:40;6.63;;;2.93;;
4051;SDS011;2040;50.924;11.604;2023-03-16T07:20:06;5.63;;;2.33;;
4051;SDS011;2040;50.924;11.604;2023-03-16T07:22:34;5.50;;;2.73;;
4051;SDS011;2040;50.924;11.604;2023-03-16T07:25:00;4.23;;;2.80;;
4051;SDS011;2040;50.924;11.604;2023-03-16T07:27:26;3.60;;;2.37;;
4051;SDS011;2040;50.924;11.604;2023-03-16T07:29:53;11.13;;;2.73;;
4051;SDS011;2040;50.924;11.604;2023-03-16T07:32:19;5.80;;;2.60;;
4051;SDS011;2040;50.924;11.604;2023-03-16T07:34:45;4.10;;;2.20;;
4051;SDS011;2040;50.924;11.604;2023-03-16T07:37:11;2.70;;;1.90;;
4051;SDS011;2040;50.924;11.604;2023-03-16T07:39:37;2.60;;;2.40;;
4051;SDS011;2040;50.924;11.604;2023-03-16T07:42:02;3.50;;;2.53;;
4051;SDS011;2040;50.924;11.604;2023-03-16T07:44:28;3.20;;;2.47;;
4051;SDS011;2040;50.924;11.604;2023-03-16T07:46:55;4.20;;;2.40;;
4051;SDS011;2040;50.924;11.604;2023-03-16T07:49:21;3.70;;;2.50;;
4051;SDS011;2040;50.924;11.604;2023-03-16T07:51:46;7.20;;;2.50;;
4051;SDS011;2040;50.924;11.604;2023-03-16T07:54:12;12.47;;;2.80;;
4051;SDS011;2040;50.924;11.604;2023-03-16T07:56:38;2.17;;;1.87;;
4051;SDS011;2040;50.924;11.604;2023-03-16T07:59:04;3.57;;;2.10;;
4051;SDS011;2040;50.924;11.604;2023-03-16T08:01:29;4.20;;;1.60;;
4051;SDS011;2040;50.924;11.604;2023-03-16T08:03:55;5.13;;;1.97;;
4051;SDS011;2040;50.924;11.604;2023-03-16T08:06:20;3.37;;;2.00;;
4051;SDS011;2040;50.924;11.604;2023-03-16T08:08:46;3.50;;;1.90;;
4051;SDS011;2040;50.924;11.604;2023-03-16T08:11:12;4.07;;;1.73;;
4051;SDS011;2040;50.924;11.604;2023-03-16T08:13:38;4.80;;;1.80;;
4051;SDS011;2040;50.924;11.604;2023-03-16T08:16:08;2.73;;;1.73;;
4051;SDS011;2040;50.924;11.604;2023-03-16T08:18:34;4.90;;;1.60;;
4051;SDS011;2040;50.924;11.604;2023-03-16T08:21:01;3.80;;;1.77;;
4051;SDS011;2040;50.924;11.604;2023-03-16T08:23:27;2.63;;;1.40;;
4051;SDS011;2040;50.924;11.604;2023-03-16T08:25:54;5.47;;;1.67;;
4051;SDS011;2040;50.924;11.604;2023-03-16T08:28:20;6.27;;;1.77;;
4051;SDS011;2040;50.924;11.604;2023-03-16T08:30:47;2.23;;;1.30;;
4051;SDS011;2040;50.924;11.604;2023-03-16T08:33:14;2.40;;;1.00;;
4051;SDS011;2040;50.924;11.604;2023-03-16T08:35:42;2.40;;;1.83;;
4051;SDS011;2040;50.924;11.604;2023-03-16T08:38:11;2.67;;;1.47;;
4051;SDS011;2040;50.924;11.604;2023-03-16T08:40:38;2.27;;;1.60;;
4051;SDS011;2040;50.924;11.604;2023-03-16T08:43:06;3.10;;;1.73;;
4051;SDS011;2040;50.924;11.604;2023-03-16T08:45:32;2.00;;;1.00;;
4051;SDS011;2040;50.924;11.604;2023-03-16T08:47:58;5.90;;;1.73;;
4051;SDS011;2040;50.924;11.604;2023-03-16T08:50:24;3.43;;;1.50;;
4051;SDS011;2040;50.924;11.604;2023-03-16T08:52:49;3.63;;;1.90;;
4051;SDS011;2040;50.924;11.604;2023-03-16T08:55:15;5.33;;;1.33;;
4051;SDS011;2040;50.924;11.604;2023-03-16T08:57:40;6.80;;;1.50;;
4051;SDS011;2040;50.924;11.604;2023-03-16T09:00:09;1.97;;;1.47;;
4051;SDS011;2040;50.924;11.604;2023-03-16T09:02:39;7.60;;;1.80;;
4051;SDS011;2040;50.924;11.604;2023-03-16T09:05:09;2.13;;;1.60;;
4051;SDS011;2040;50.924;11.604;2023-03-16T09:07:36;1.47;;;1.33;;
4051;SDS011;2040;50.924;11.604;2023-03-16T09:10:03;5.70;;;2.20;;
4051;SDS011;2040;50.924;11.604;2023-03-16T09:12:31;2.80;;;1.67;;
4051;SDS011;2040;50.924;11.604;2023-03-16T09:14:59;4.50;;;1.43;;
4051;SDS011;2040;50.924;11.604;2023-03-16T09:17:25;4.47;;;2.77;;
4051;SDS011;2040;50.924;11.604;2023-03-16T09:19:51;4.07;;;1.53;;
4051;SDS011;2040;50.924;11.604;2023-03-16T09:22:16;3.37;;;1.10;;
4051;SDS011;2040;50.924;11.604;2023-03-16T09:24:43;3.33;;;1.80;;
4051;SDS011;2040;50.924;11.604;2023-03-16T09:27:09;4.17;;;3.63;;
4051;SDS011;2040;50.924;11.604;2023-03-16T09:29:34;2.33;;;1.33;;
4051;SDS011;2040;50.924;11.604;2023-03-16T09:32:00;2.53;;;1.20;;
4051;SDS011;2040;50.924;11.604;2023-03-16T09:34:26;1.07;;;0.97;;
4051;SDS011;2040;50.924;11.604;2023-03-16T09:36:52;3.60;;;1.27;;
4051;SDS011;2040;50.924;11.604;2023-03-16T09:39:18;2.37;;;1.33;;
4051;SDS011;2040;50.924;11.604;2023-03-16T09:41:50;4.47;;;1.43;;
4051;SDS011;2040;50.924;11.604;2023-03-16T09:44:27;3.17;;;1.37;;
4051;SDS011;2040;50.924;11.604;2023-03-16T09:47:06;2.13;;;1.47;;
4051;SDS011;2040;50.924;11.604;2023-03-16T09:49:36;4.13;;;1.90;;
4051;SDS011;2040;50.924;11.604;2023-03-16T09:55:26;4.00;;;1.53;;
4051;SDS011;2040;50.924;11.604;2023-03-16T09:57:57;3.87;;;1.47;;
4051;SDS011;2040;50.924;11.604;2023-03-16T10:00:26;1.47;;;1.33;;
4051;SDS011;2040;50.924;11.604;2023-03-16T10:05:39;5.00;;;1.20;;
4051;SDS011;2040;50.924;11.604;2023-03-16T10:08:07;3.70;;;1.43;;
4051;SDS011;2040;50.924;11.604;2023-03-16T10:10:55;3.27;;;1.93;;
4051;SDS011;2040;50.924;11.604;2023-03-16T10:13:34;4.00;;;1.87;;
4051;SDS011;2040;50.924;11.604;2023-03-16T10:16:03;2.80;;;1.47;;
4051;SDS011;2040;50.924;11.604;2023-03-16T10:19:02;2.30;;;1.60;;
4051;SDS011;2040;50.924;11.604;2023-03-16T10:21:37;1.67;;;1.23;;
4051;SDS011;2040;50.924;11.604;2023-03-16T10:24:08;2.27;;;1.77;;
4051;SDS011;2040;50.924;11.604;2023-03-16T10:26:43;1.73;;;0.90;;
4051;SDS011;2040;50.924;11.604;2023-03-16T10:29:18;2.60;;;1.20;;
4051;SDS011;2040;50.924;11.604;2023-03-16T10:31:43;2.60;;;1.67;;
4051;SDS011;2040;50.924;11.604;2023-03-16T10:34:09;1.10;;;1.00;;
4051;SDS011;2040;50.924;11.604;2023-03-16T10:36:37;2.27;;;1.27;;
4051;SDS011;2040;50.924;11.604;2023-03-16T10:39:07;3.60;;;1.17;;
4051;SDS011;2040;50.924;11.604;2023-03-16T10:41:36;3.70;;;1.30;;
4051;SDS011;2040;50.924;11.604;2023-03-16T10:44:13;1.40;;;1.13;;
4051;SDS011;2040;50.924;11.604;2023-03-16T10:46:41;3.33;;;1.20;;
4051;SDS011;2040;50.924;11.604;2023-03-16T10:49:19;1.60;;;1.20;;
4051;SDS011;2040;50.924;11.604;2023-03-16T10:51:53;4.03;;;1.30;;
4051;SDS011;2040;50.924;11.604;2023-03-16T10:54:27;2.47;;;1.03;;
4051;SDS011;2040;50.924;11.604;2023-03-16T10:56:54;3.33;;;1.50;;
4051;SDS011;2040;50.924;11.604;2023-03-16T10:59:25;2.30;;;1.13;;
4051;SDS011;2040;50.924;11.604;2023-03-16T11:01:54;3.47;;;1.40;;
4051;SDS011;2040;50.924;11.604;2023-03-16T11:04:21;7.13;;;1.43;;
4051;SDS011;2040;50.924;11.604;2023-03-16T11:06:56;1.77;;;1.10;;
4051;SDS011;2040;50.924;11.604;2023-03-16T11:09:26;1.37;;;1.27;;
4051;SDS011;2040;50.924;11.604;2023-03-16T11:11:59;1.10;;;0.97;;
4051;SDS011;2040;50.924;11.604;2023-03-16T11:14:36;1.57;;;1.13;;
4051;SDS011;2040;50.924;11.604;2023-03-16T11:17:05;4.30;;;1.40;;
4051;SDS011;2040;50.924;11.604;2023-03-16T11:19:38;2.40;;;1.50;;
4051;SDS011;2040;50.924;11.604;2023-03-16T11:22:15;4.23;;;1.27;;
4051;SDS011;2040;50.924;11.604;2023-03-16T11:24:44;2.30;;;1.43;;
4051;SDS011;2040;50.924;11.604;2023-03-16T11:27:35;2.40;;;1.87;;
4051;SDS011;2040;50.924;11.604;2023-03-16T11:30:14;3.83;;;1.40;;
4051;SDS011;2040;50.924;11.604;2023-03-16T11:32:48;2.03;;;1.27;;
4051;SDS011;2040;50.924;11.604;2023-03-16T11:35:17;5.13;;;1.30;;
4051;SDS011;2040;50.924;11.604;2023-03-16T11:41:03;1.53;;;1.10;;
4051;SDS011;2040;50.924;11.604;2023-03-16T11:43:48;3.80;;;1.20;;
4051;SDS011;2040;50.924;11.604;2023-03-16T11:46:21;1.83;;;0.93;;
4051;SDS011;2040;50.924;11.604;2023-03-16T11:49:15;1.60;;;1.20;;
4051;SDS011;2040;50.924;11.604;2023-03-16T11:54:24;3.80;;;1.20;;
4051;SDS011;2040;50.924;11.604;2023-03-16T12:02:45;2.43;;;1.27;;
4051;SDS011;2040;50.924;11.604;2023-03-16T12:08:42;1.90;;;1.27;;
4051;SDS011;2040;50.924;11.604;2023-03-16T12:16:26;3.73;;;1.30;;
4051;SDS011;2040;50.924;11.604;2023-03-16T12:18:58;2.50;;;1.10;;
4051;SDS011;2040;50.924;11.604;2023-03-16T12:21:35;2.80;;;1.13;;
4051;SDS011;2040;50.924;11.604;2023-03-16T12:24:04;4.30;;;1.23;;
4051;SDS011;2040;50.924;11.604;2023-03-16T12:26:37;2.97;;;1.50;;
4051;SDS011;2040;50.924;11.604;2023-03-16T12:29:28;3.23;;;1.30;;
4051;SDS011;2040;50.924;11.604;2023-03-16T12:31:53;3.60;;;1.27;;
4051;SDS011;2040;50.924;11.604;2023-03-16T12:35:04;2.33;;;1.53;;
4051;SDS011;2040;50.924;11.604;2023-03-16T12:37:31;1.50;;;1.23;;
4051;SDS011;2040;50.924;11.604;2023-03-16T12:45:28;0.80;;;0.80;;
4051;SDS011;2040;50.924;11.604;2023-03-16T12:48:20;1.80;;;0.83;;
4051;SDS011;2040;50.924;11.604;2023-03-16T12:50:59;3.67;;;1.00;;
4051;SDS011;2040;50.924;11.604;2023-03-16T12:54:18;2.50;;;1.00;;
4051;SDS011;2040;50.924;11.604;2023-03-16T12:56:16;4.50;;;1.20;;
4051;SDS011;2040;50.924;11.604;2023-03-16T12:58:45;0.80;;;0.80;;
4051;SDS011;2040;50.924;11.604;2023-03-16T13:01:12;3.53;;;0.93;;
4051;SDS011;2040;50.924;11.604;2023-03-16T13:03:40;6.83;;;1.43;;
4051;SDS011;2040;50.924;11.604;2023-03-16T13:06:15;2.23;;;0.97;;
4051;SDS011;2040;50.924;11.604;2023-03-16T13:08:50;2.70;;;1.20;;
4051;SDS011;2040;50.924;11.604;2023-03-16T13:11:23;1.40;;;0.97;;
4051;SDS011;2040;50.924;11.604;2023-03-16T13:13:52;1.63;;;0.87;;
4051;SDS011;2040;50.924;11.604;2023-03-16T13:16:33;2.93;;;0.80;;
4051;SDS011;2040;50.924;11.604;2023-03-16T13:19:15;3.10;;;0.93;;
4051;SDS011;2040;50.924;11.604;2023-03-16T13:21:58;3.47;;;1.47;;
4051;SDS011;2040;50.924;11.604;2023-03-16T13:24:34;5.43;;;1.17;;
4051;SDS011;2040;50.924;11.604;2023-03-16T13:27:05;4.50;;;1.10;;
4051;SDS011;2040;50.924;11.604;2023-03-16T13:29:50;2.27;;;1.53;;
4051;SDS011;2040;50.924;11.604;2023-03-16T13:32:21;1.70;;;0.93;;
4051;SDS011;2040;50.924;11.604;2023-03-16T13:34:49;3.30;;;0.90;;
4051;SDS011;2040;50.924;11.604;2023-03-16T13:37:18;2.17;;;0.97;;
4051;SDS011;2040;50.924;11.604;2023-03-16T13:39:51;4.30;;;1.17;;
4051;SDS011;2040;50.924;11.604;2023-03-16T13:42:19;0.70;;;0.60;;
4051;SDS011;2040;50.924;11.604;2023-03-16T13:44:46;3.60;;;1.00;;
4051;SDS011;2040;50.924;11.604;2023-03-16T13:47:15;3.57;;;1.20;;
4051;SDS011;2040;50.924;11.604;2023-03-16T13:50:16;3.63;;;1.20;;
4051;SDS011;2040;50.924;11.604;2023-03-16T13:52:36;2.67;;;0.93;;
4051;SDS011;2040;50.924;11.604;2023-03-16T13:55:05;1.27;;;0.80;;
4051;SDS011;2040;50.924;11.604;2023-03-16T13:57:36;5.03;;;1.00;;
4051;SDS011;2040;50.924;11.604;2023-03-16T14:00:06;1.93;;;1.00;;
4051;SDS011;2040;50.924;11.604;2023-03-16T14:02:43;2.30;;;0.97;;
4051;SDS011;2040;50.924;11.604;2023-03-16T14:05:10;3.50;;;0.77;;
4051;SDS011;2040;50.924;11.604;2023-03-16T14:07:37;6.53;;;0.90;;
4051;SDS011;2040;50.924;11.604;2023-03-16T14:10:03;1.20;;;0.83;;
4051;SDS011;2040;50.924;11.604;2023-03-16T14:12:30;3.60;;;1.20;;
4051;SDS011;2040;50.924;11.604;2023-03-16T14:14:55;1.47;;;0.63;;
4051;SDS011;2040;50.924;11.604;2023-03-16T14:17:21;3.70;;;1.13;;
4051;SDS011;2040;50.924;11.604;2023-03-16T14:19:51;2.10;;;1.00;;
4051;SDS011;2040;50.924;11.604;2023-03-16T14:22:22;1.07;;;0.97;;
4051;SDS011;2040;50.924;11.604;2023-03-16T14:24:56;3.40;;;0.80;;
4051;SDS011;2040;50.924;11.604;2023-03-16T14:27:28;0.90;;;0.80;;
4051;SDS011;2040;50.924;11.604;2023-03-16T14:32:52;0.60;;;0.60;;
4051;SDS011;2040;50.924;11.604;2023-03-16T14:35:19;1.30;;;0.90;;
4051;SDS011;2040;50.924;11.604;2023-03-16T14:37:46;2.07;;;0.70;;
4051;SDS011;2040;50.924;11.604;2023-03-16T14:40:29;0.87;;;0.87;;
4051;SDS011;2040;50.924;11.604;2023-03-16T14:42:56;1.90;;;0.77;;
4051;SDS011;2040;50.924;11.604;2023-03-16T14:45:27;3.63;;;0.73;;
4051;SDS011;2040;50.924;11.604;2023-03-16T14:47:59;2.00;;;0.80;;
4051;SDS011;2040;50.924;11.604;2023-03-16T14:50:41;1.63;;;0.70;;
4051;SDS011;2040;50.924;11.604;2023-03-16T14:53:08;1.53;;;0.70;;
4051;SDS011;2040;50.924;11.604;2023-03-16T14:55:34;2.13;;;0.70;;
4051;SDS011;2040;50.924;11.604;2023-03-16T14:58:00;1.80;;;0.70;;
4051;SDS011;2040;50.924;11.604;2023-03-16T15:00:26;1.90;;;0.80;;
4051;SDS011;2040;50.924;11.604;2023-03-16T15:03:03;0.80;;;0.60;;
4051;SDS011;2040;50.924;11.604;2023-03-16T15:05:36;2.87;;;0.80;;
4051;SDS011;2040;50.924;11.604;2023-03-16T15:08:04;0.73;;;0.73;;
4051;SDS011;2040;50.924;11.604;2023-03-16T15:10:34;3.43;;;1.03;;
4051;SDS011;2040;50.924;11.604;2023-03-16T15:13:00;1.67;;;0.80;;
4051;SDS011;2040;50.924;11.604;2023-03-16T15:15:37;1.63;;;0.87;;
4051;SDS011;2040;50.924;11.604;2023-03-16T15:18:04;1.90;;;0.73;;
4051;SDS011;2040;50.924;11.604;2023-03-16T15:20:32;1.63;;;0.80;;
4051;SDS011;2040;50.924;11.604;2023-03-16T15:23:02;1.30;;;0.90;;
4051;SDS011;2040;50.924;11.604;2023-03-16T15:30:56;0.70;;;0.70;;
4051;SDS011;2040;50.924;11.604;2023-03-16T15:33:25;2.20;;;0.93;;
4051;SDS011;2040;50.924;11.604;2023-03-16T15:35:52;1.00;;;0.70;;
4051;SDS011;2040;50.924;11.604;2023-03-16T15:38:23;0.90;;;0.67;;
4051;SDS011;2040;50.924;11.604;2023-03-16T15:40:55;0.80;;;0.70;;
4051;SDS011;2040;50.924;11.604;2023-03-16T15:43:21;2.30;;;0.60;;
4051;SDS011;2040;50.924;11.604;2023-03-16T15:45:48;1.00;;;0.80;;
4051;SDS011;2040;50.924;11.604;2023-03-16T15:48:16;2.37;;;0.80;;
4051;SDS011;2040;50.924;11.604;2023-03-16T15:50:45;0.73;;;0.60;;
4051;SDS011;2040;50.924;11.604;2023-03-16T15:53:23;0.90;;;0.80;;
4051;SDS011;2040;50.924;11.604;2023-03-16T15:55:52;1.00;;;0.80;;
4051;SDS011;2040;50.924;11.604;2023-03-16T15:58:23;0.80;;;0.70;;
4051;SDS011;2040;50.924;11.604;2023-03-16T16:00:55;3.63;;;0.90;;